Airfield :
LOGIN :

Register | Disclaimer

   EN    FR    IT 

 










Legend :    VFR   Marginal VFR   IFR   Intensive IFR   Very Intensive IFR
Visi :
Ceiling :
>= 8 km
>= 3000ft
5 to 8 km
1000 to 3000 ft
1500m to 5 km
500 to 1000 ft
800 to 1500m
200 to 500 ft
< 800m
< 200 ft
Symbols :   Thunderstorms  Fog  Heavy snow  Heavy precipitations  Wind > 20 kt
SIGMETs :     Misc.  Thunderstorms  Icing  Turbulence  Mountain Waves  Volcanic Ashes






- Airport Elevation : 74 ft
- IATA code : EIN


EHEH - Eindhoven

CURRENT METAR :
  • 101055Z AUTO 19011KT 160V230 9999 FEW210 05/02 Q1024 BLU 20010G20KT CAVOK

EXPIRED METARs :
  • 101025Z AUTO 20010KT 170V230 9999 FEW260 05/01 Q1025 BLU 21010KT CAVOK
  • 100955Z AUTO 19009KT 160V220 9999 BKN230 04/02 Q1025 BLU 21010KT CAVOK
  • 100925Z AUTO 19007KT 9999 SCT220 OVC300 03/01 Q1025 BLU 22010KT CAVOK
  • 100855Z AUTO 20007KT 9999 OVC210 02/01 Q1025 BLU 22010KT CAVOK
  • 100825Z AUTO 21007KT 9999 OVC210 02/01 Q1025 BLU 22010KT CAVOK

TAF TAF EHEH
Valid from the 10 at 06:00 until the 11 at 12:00 UTC


100517Z 1006/1112 23005KT 9999 SCT040
BECMG 1009/1012 19012G22KT
BECMG 1015/1018 19017G30KT
BECMG 1022/1101 SCT015 BKN020
TEMPO 1100/1112 4500 -RADZ SCT012 BKN015
PROB40
TEMPO 1104/1112 3000 DZRA SCT008 BKN012



MET'MAP, your aeronautical weather chart ! - Copyright ORBIFLY December 2007 - Disclaimer

ORBIFLY MET'MAP TEAM :

Programming & Development : Alexandra Zaïnal
Concept & original design : Baudouin d'Aumeries
Assistance for programming : Marc-Olivier Méhu
Technical & hardware support : Manuel Goepfert

Contact : metmap@orbifly.com




SOURCES & CREDITS :

   NOAA